Sea Prospect — 5BGQ3 — position and weather

sailwx.info

Track history (hours):
 
Tides and Currents Weather Stations Pressure Air Temp Water Temp Dewpoint Dewpoint Depression Visibility Wind Speed Wind Dir Waves Ship Positions

Sea Prospect

Last reported at 2017-Oct-14 15:07 UTC. Time now 2017-Oct-19 02:17 UTC.
Position N 35°60' W 005°16'.

Length 106 m; draft 8.1 m.

Type: Cargo ship. MMSI: 209179000.

Date/timePositionNaut miles runAvg speedWind from/ knotsBaromVisibWave heightAir tempDewpointWater temp
2017-Oct-14 15:07N 35°60' W 005°16'213.6
2017-Oct-14 15:00N 35°60' W 005°18'714.3
2017-Oct-14 14:30N 35°58' W 005°26'16911.7
2017-Oct-14 00:05N 36°28' W 008°53'111.6
2017-Oct-14 00:00N 36°29' W 008°54'3511.9
2017-Oct-13 21:02N 36°47' W 009°31'012.2
2017-Oct-13 21:00N 36°47' W 009°32'712.0
2017-Oct-13 20:25N 36°54' W 009°35'6711.9
2017-Oct-13 14:49N 37°59' W 009°54'  
2017-Oct-10 04:52N 50°30' W 000°09'513.1
2017-Oct-10 04:31N 50°32' W 000°02'712.8
2017-Oct-10 03:59N 50°34' E 000°08'1412.3
2017-Oct-10 02:50N 50°38' E 000°29'811.3
2017-Oct-10 02:08N 50°41' E 000°40'211.2
2017-Oct-10 01:58N 50°42' E 000°43'3111.1
2017-Oct-09 23:10N 51°01' E 001°22'213.6
2017-Oct-09 22:59N 51°03' E 001°25'714.6
2017-Oct-09 22:30N 51°07' E 001°34'815.1
2017-Oct-09 22:01N 51°12' E 001°43'714.4
2017-Oct-09 21:31N 51°18' E 001°50'713.8
2017-Oct-09 21:00N 51°24' E 001°55'28910.6
2017-Oct-08 17:45N 53°52' E 008°44'313.9
2017-Oct-08 17:31N 53°51' E 008°49'714.0
2017-Oct-08 17:00N 53°51' E 009°00'510.6
2017-Oct-08 16:30N 53°54' E 009°09'0 0.1
2017-Oct-08 16:00N 53°54' E 009°09'0 0.6
2017-Oct-08 15:30N 53°54' E 009°09'3 5.8
2017-Oct-08 15:00N 53°56' E 009°12'4 8.0
2017-Oct-08 14:30N 53°59' E 009°17'10 6.6
2017-Oct-08 13:02N 54°08' E 009°20'0 8.1
2017-Oct-08 13:01N 54°09' E 009°21'4 6.9
2017-Oct-08 12:29N 54°10' E 009°26'1 2.4
2017-Oct-08 12:00N 54°11' E 009°28'4 7.5
2017-Oct-08 11:31N 54°12' E 009°34'4 7.3
2017-Oct-08 11:00N 54°15' E 009°37'4 7.8
2017-Oct-08 10:30N 54°18' E 009°42'43 5.6
2017-Oct-08 02:54N 54°35' E 010°49'410.7
2017-Oct-08 02:30N 54°36' E 010°56'510.2
2017-Oct-08 02:00N 54°36' E 011°05'5 9.6
2017-Oct-08 01:30N 54°35' E 011°13'1010.8
2017-Oct-08 00:33N 54°31' E 011°29'010.8
2017-Oct-08 00:30N 54°30' E 011°30'2110.7
2017-Oct-07 22:32N 54°27' E 012°06'010.7
2017-Oct-07 22:30N 54°27' E 012°06'510.1
2017-Oct-07 22:00N 54°31' E 012°12'611.5
2017-Oct-07 21:30N 54°36' E 012°15'6410.3
2017-Oct-07 15:22N 55°03' E 013°55'6710.8
2017-Oct-07 09:10N 55°44' E 015°28'211.2
2017-Oct-07 09:00N 55°45' E 015°31'611.2
2017-Oct-07 08:30N 55°47' E 015°40'611.2
2017-Oct-07 08:00N 55°50' E 015°48'611.2
2017-Oct-07 07:30N 55°53' E 015°57'611.4
2017-Oct-07 07:00N 55°56' E 016°06'26710.8
2017-Oct-06 06:19N 60°04' E 019°10'412.1
2017-Oct-06 05:58N 60°08' E 019°05'  
Track history (hours):
 
Tides and Currents Weather Stations Pressure Air Temp Water Temp Dewpoint Dewpoint Depression Visibility Wind Speed Wind Dir Waves Ship Positions

Sea Prospect

Last reported at 2017-Oct-14 15:07 UTC. Time now 2017-Oct-19 02:17 UTC.
Position N 35°60' W 005°16'.

Length 106 m; draft 8.1 m.

Type: Cargo ship. MMSI: 209179000.

Date/timePositionNaut miles runAvg speedWind from/ knotsBaromVisibWave heightAir tempDewpointWater temp
2017-Oct-14 15:07N 35°60' W 005°16'213.6
2017-Oct-14 15:00N 35°60' W 005°18'714.3
2017-Oct-14 14:30N 35°58' W 005°26'16911.7
2017-Oct-14 00:05N 36°28' W 008°53'111.6
2017-Oct-14 00:00N 36°29' W 008°54'3511.9
2017-Oct-13 21:02N 36°47' W 009°31'012.2
2017-Oct-13 21:00N 36°47' W 009°32'712.0
2017-Oct-13 20:25N 36°54' W 009°35'6711.9
2017-Oct-13 14:49N 37°59' W 009°54'  
2017-Oct-10 04:52N 50°30' W 000°09'513.1
2017-Oct-10 04:31N 50°32' W 000°02'712.8
2017-Oct-10 03:59N 50°34' E 000°08'1412.3
2017-Oct-10 02:50N 50°38' E 000°29'811.3
2017-Oct-10 02:08N 50°41' E 000°40'211.2
2017-Oct-10 01:58N 50°42' E 000°43'3111.1
2017-Oct-09 23:10N 51°01' E 001°22'213.6
2017-Oct-09 22:59N 51°03' E 001°25'714.6
2017-Oct-09 22:30N 51°07' E 001°34'815.1
2017-Oct-09 22:01N 51°12' E 001°43'714.4
2017-Oct-09 21:31N 51°18' E 001°50'713.8
2017-Oct-09 21:00N 51°24' E 001°55'28910.6
2017-Oct-08 17:45N 53°52' E 008°44'313.9
2017-Oct-08 17:31N 53°51' E 008°49'714.0
2017-Oct-08 17:00N 53°51' E 009°00'510.6
2017-Oct-08 16:30N 53°54' E 009°09'0 0.1
2017-Oct-08 16:00N 53°54' E 009°09'0 0.6
2017-Oct-08 15:30N 53°54' E 009°09'3 5.8
2017-Oct-08 15:00N 53°56' E 009°12'4 8.0
2017-Oct-08 14:30N 53°59' E 009°17'10 6.6
2017-Oct-08 13:02N 54°08' E 009°20'0 8.1
2017-Oct-08 13:01N 54°09' E 009°21'4 6.9
2017-Oct-08 12:29N 54°10' E 009°26'1 2.4
2017-Oct-08 12:00N 54°11' E 009°28'4 7.5
2017-Oct-08 11:31N 54°12' E 009°34'4 7.3
2017-Oct-08 11:00N 54°15' E 009°37'4 7.8
2017-Oct-08 10:30N 54°18' E 009°42'43 5.6
2017-Oct-08 02:54N 54°35' E 010°49'410.7
2017-Oct-08 02:30N 54°36' E 010°56'510.2
2017-Oct-08 02:00N 54°36' E 011°05'5 9.6
2017-Oct-08 01:30N 54°35' E 011°13'1010.8
2017-Oct-08 00:33N 54°31' E 011°29'010.8
2017-Oct-08 00:30N 54°30' E 011°30'2110.7
2017-Oct-07 22:32N 54°27' E 012°06'010.7
2017-Oct-07 22:30N 54°27' E 012°06'510.1
2017-Oct-07 22:00N 54°31' E 012°12'611.5
2017-Oct-07 21:30N 54°36' E 012°15'6410.3
2017-Oct-07 15:22N 55°03' E 013°55'6710.8
2017-Oct-07 09:10N 55°44' E 015°28'211.2
2017-Oct-07 09:00N 55°45' E 015°31'611.2
2017-Oct-07 08:30N 55°47' E 015°40'611.2
2017-Oct-07 08:00N 55°50' E 015°48'611.2
2017-Oct-07 07:30N 55°53' E 015°57'611.4
2017-Oct-07 07:00N 55°56' E 016°06'26710.8
2017-Oct-06 06:19N 60°04' E 019°10'412.1
2017-Oct-06 05:58N 60°08' E 019°05'  

Dump ship's entire track history